Time;durP1;ratioP1;P1;durP2;ratioP2;P2;SDS_P1;SDS_P2;PMS_P1;PMS_P2;Temp;Humidity;BMP_temperature;BMP_pressure;BME280_temperature;BME280_humidity;BME280_pressure;Samples;Min_cycle;Max_cycle;Signal;HPM_P1;HPM_P2
2021/09/29 00:00:56;;;;;;;1.41;1.14;;;;;;;12.54;62.71;101979.34;474768;111;930470;-77
2021/09/29 00:02:00;;;;;;;1.44;1.34;;;;;;;12.54;62.71;101980.20;474557;111;922611;-77
2021/09/29 00:03:04;;;;;;;1.36;1.26;;;;;;;12.54;62.67;101976.61;475255;110;930321;-76
2021/09/29 00:04:08;;;;;;;1.31;1.24;;;;;;;12.52;62.69;101982.27;474766;111;922953;-78
2021/09/29 00:05:11;;;;;;;1.70;1.59;;;;;;;12.51;62.68;101974.27;474203;111;922912;-77
2021/09/29 00:06:16;;;;;;;1.46;1.26;;;;;;;12.50;62.66;101976.16;474930;111;923581;-77
2021/09/29 00:07:20;;;;;;;1.48;1.38;;;;;;;12.48;62.65;101975.49;475483;111;922722;-77
2021/09/29 00:08:23;;;;;;;1.41;1.30;;;;;;;12.47;62.57;101983.88;474200;111;930245;-78
2021/09/29 00:09:27;;;;;;;1.45;1.29;;;;;;;12.44;62.54;101979.66;474311;111;922937;-76
2021/09/29 00:10:31;;;;;;;1.45;1.38;;;;;;;12.41;62.64;101966.36;474740;111;922313;-76
2021/09/29 00:11:35;;;;;;;1.54;1.44;;;;;;;12.40;62.64;101972.05;474570;111;923067;-77
2021/09/29 00:12:39;;;;;;;1.62;1.52;;;;;;;12.37;62.60;101965.05;474168;111;923075;-76
2021/09/29 00:13:42;;;;;;;2.26;1.62;;;;;;;12.37;62.63;101976.00;474561;110;930375;-76
2021/09/29 00:14:46;;;;;;;1.55;1.45;;;;;;;12.35;62.67;101971.78;475806;111;922690;-76
2021/09/29 00:15:49;;;;;;;1.52;1.34;;;;;;;12.34;62.72;101978.28;474854;111;922511;-77
2021/09/29 00:16:53;;;;;;;1.98;1.88;;;;;;;12.33;62.82;101993.84;474975;111;922889;-76
2021/09/29 00:17:57;;;;;;;2.25;1.65;;;;;;;12.32;62.66;101978.47;474037;111;922909;-76
2021/09/29 00:19:00;;;;;;;1.82;1.72;;;;;;;12.29;62.67;101984.33;475784;111;923064;-76
2021/09/29 00:20:06;;;;;;;1.79;1.69;;;;;;;12.27;62.64;101980.08;475159;111;922471;-79
2021/09/29 00:21:09;;;;;;;3.53;1.92;;;;;;;12.24;62.66;101978.56;474853;111;922923;-76
2021/09/29 00:22:12;;;;;;;2.51;1.96;;;;;;;12.22;62.72;101985.28;474879;111;922976;-77
2021/09/29 00:23:16;;;;;;;1.88;1.74;;;;;;;12.19;62.83;101981.02;475238;111;922808;-78
2021/09/29 00:24:20;;;;;;;1.99;1.78;;;;;;;12.19;62.94;101985.64;475001;111;923003;-77
2021/09/29 00:25:23;;;;;;;1.72;1.62;;;;;;;12.18;62.97;101984.83;475398;111;923029;-76
2021/09/29 00:26:27;;;;;;;1.78;1.56;;;;;;;12.20;62.95;101984.61;474541;111;922508;-76
2021/09/29 00:27:31;;;;;;;2.12;2.02;;;;;;;12.20;62.97;101985.45;475011;111;930349;-76
2021/09/29 00:28:34;;;;;;;2.56;1.64;;;;;;;12.22;62.95;101988.02;474815;111;922525;-77
2021/09/29 00:29:39;;;;;;;1.82;1.71;;;;;;;12.23;62.95;101995.19;473894;111;922661;-76
2021/09/29 00:31:44;;;;;;;2.21;1.68;;;;;;;12.23;62.99;101987.83;474586;111;922596;-76
2021/09/29 00:31:59;;;;;;;1.88;1.78;;;;;;;12.26;62.94;101989.31;457603;111;922804;-76
2021/09/29 00:33:03;;;;;;;1.75;1.65;;;;;;;12.27;62.83;101991.02;474365;111;922824;-77
2021/09/29 00:34:22;;;;;;;1.99;1.89;;;;;;;12.27;62.88;101988.28;475026;111;922536;-77
2021/09/29 00:35:19;;;;;;;2.16;1.93;;;;;;;12.27;62.90;101994.60;473495;111;922666;-77
2021/09/29 00:36:25;;;;;;;1.97;1.87;;;;;;;12.30;62.86;101991.47;474429;109;923099;-77
2021/09/29 00:37:29;;;;;;;2.09;1.82;;;;;;;12.31;62.77;101986.85;473866;110;923052;-77
2021/09/29 00:38:32;;;;;;;2.39;2.21;;;;;;;12.32;62.73;101988.55;475201;110;922485;-77
2021/09/29 00:39:36;;;;;;;2.22;2.11;;;;;;;12.33;62.51;101982.05;475147;111;923044;-77
2021/09/29 00:40:40;;;;;;;2.17;2.03;;;;;;;12.30;62.36;101996.94;475446;111;922467;-77
2021/09/29 00:41:45;;;;;;;2.33;2.16;;;;;;;12.25;62.35;101993.08;474828;111;930780;-77
2021/09/29 00:42:49;;;;;;;1.98;1.87;;;;;;;12.20;62.53;101992.81;474014;110;922481;-78
2021/09/29 00:43:52;;;;;;;2.35;2.09;;;;;;;12.19;62.52;102002.05;474549;111;922383;-77
2021/09/29 00:44:55;;;;;;;2.52;2.31;;;;;;;12.16;62.36;101994.24;475479;111;923529;-77
2021/09/29 00:45:59;;;;;;;2.49;2.22;;;;;;;12.11;62.46;101995.67;473899;110;930281;-77
2021/09/29 00:47:03;;;;;;;2.44;2.24;;;;;;;12.08;62.50;101995.19;474620;111;930296;-77
2021/09/29 00:48:07;;;;;;;3.25;2.32;;;;;;;12.06;62.60;102002.75;475281;111;930396;-78
2021/09/29 00:49:12;;;;;;;2.80;2.49;;;;;;;12.05;62.56;102001.05;474370;111;922577;-76
2021/09/29 00:50:15;;;;;;;4.08;2.34;;;;;;;12.03;62.55;102000.38;475198;111;923130;-77
2021/09/29 00:51:19;;;;;;;3.51;3.19;;;;;;;12.00;62.68;101998.89;473908;111;922943;-77
2021/09/29 00:52:23;;;;;;;2.33;2.18;;;;;;;12.00;62.84;102001.62;472921;111;923680;-76
2021/09/29 00:53:26;;;;;;;3.02;2.31;;;;;;;12.02;62.83;101998.67;475100;111;923057;-77
2021/09/29 00:54:31;;;;;;;3.84;2.62;;;;;;;12.04;62.83;102004.81;475577;111;923030;-76
2021/09/29 00:55:34;;;;;;;2.43;2.14;;;;;;;12.05;62.78;102004.62;474229;111;922971;-77
2021/09/29 00:56:38;;;;;;;2.45;2.19;;;;;;;12.06;62.65;102011.80;475309;111;922959;-78
2021/09/29 00:57:42;;;;;;;2.97;2.42;;;;;;;12.04;62.48;102005.66;472813;111;922511;-76
2021/09/29 00:58:45;;;;;;;2.71;2.51;;;;;;;12.00;62.51;102004.36;470215;112;922464;-76
2021/09/29 00:59:50;;;;;;;2.51;2.31;;;;;;;11.98;62.63;102002.83;468659;112;922534;-76
2021/09/29 01:00:55;;;;;;;2.78;2.58;;;;;;;11.96;62.80;102008.48;469300;112;922500;-77
2021/09/29 01:01:59;;;;;;;2.51;2.38;;;;;;;11.96;62.85;102003.02;469604;112;922671;-77
2021/09/29 01:03:03;;;;;;;2.82;2.38;;;;;;;11.97;62.72;102004.72;468934;112;930335;-76
2021/09/29 01:04:07;;;;;;;2.49;2.25;;;;;;;12.00;62.70;102015.29;468618;112;922425;-76
2021/09/29 01:05:11;;;;;;;2.42;2.22;;;;;;;12.00;62.70;102015.29;469265;112;922500;-77
2021/09/29 01:06:27;;;;;;;2.85;2.65;;;;;;;12.01;62.73;102019.72;468838;112;923182;-77
2021/09/29 01:07:55;;;;;;;2.59;2.39;;;;;;;12.04;62.72;102013.02;468136;112;922526;-77
2021/09/29 01:09:10;;;;;;;3.44;2.63;;;;;;;12.06;62.69;102010.95;469168;112;922513;-76
2021/09/29 01:10:18;;;;;;;3.02;2.54;;;;;;;12.07;62.66;102008.00;467922;112;922516;-76
2021/09/29 01:11:52;;;;;;;2.73;2.49;;;;;;;12.09;62.59;102008.67;469816;112;922605;-77
2021/09/29 01:13:08;;;;;;;2.19;2.07;;;;;;;12.09;62.49;102011.41;458009;114;922921;-77
2021/09/29 01:14:18;;;;;;;2.98;2.32;;;;;;;12.08;62.37;102014.32;458271;112;923146;-78
2021/09/29 01:15:34;;;;;;;2.49;2.28;;;;;;;12.06;62.36;102011.80;469462;112;922507;-77
2021/09/29 01:16:38;;;;;;;2.78;2.58;;;;;;;12.05;62.40;102015.56;468410;112;922378;-76
2021/09/29 01:17:48;;;;;;;2.51;2.34;;;;;;;12.06;62.48;102016.42;469086;112;923019;-77
2021/09/29 01:18:55;;;;;;;2.70;2.51;;;;;;;12.07;62.45;102010.73;468290;112;923107;-77
2021/09/29 01:20:05;;;;;;;2.62;2.42;;;;;;;12.07;62.33;102010.73;468611;112;922872;-75
2021/09/29 01:21:11;;;;;;;2.62;2.34;;;;;;;12.06;62.19;102014.53;469037;112;923096;-78
2021/09/29 01:22:51;;;;;;;2.99;2.79;;;;;;;12.03;62.29;102014.89;468259;112;922556;-77
2021/09/29 01:24:13;;;;;;;3.88;2.84;;;;;;;12.02;62.37;102024.13;468732;112;923213;-76
2021/09/29 01:25:20;;;;;;;3.64;2.30;;;;;;;12.04;62.44;102019.33;469361;111;922926;-77
2021/09/29 01:26:31;;;;;;;2.63;2.43;;;;;;;12.05;62.45;102028.38;468135;112;922916;-76
2021/09/29 01:27:35;;;;;;;5.42;2.89;;;;;;;12.05;62.36;102023.77;469877;112;922591;-77
2021/09/29 01:28:42;;;;;;;2.53;2.33;;;;;;;12.05;62.37;102021.03;470171;112;922802;-77
2021/09/29 01:29:46;;;;;;;2.86;2.63;;;;;;;12.05;62.28;102021.03;469279;112;922895;-77
2021/09/29 01:30:50;;;;;;;2.76;2.56;;;;;;;12.05;62.18;102031.97;468744;112;923104;-75
2021/09/29 01:31:54;;;;;;;3.21;2.86;;;;;;;12.03;62.21;102025.83;469662;112;922506;-77
2021/09/29 01:32:58;;;;;;;2.61;2.39;;;;;;;12.02;62.07;102021.39;468318;112;922453;-76
2021/09/29 01:34:03;;;;;;;3.81;2.51;;;;;;;12.00;62.14;102028.95;467793;112;922823;-76
2021/09/29 01:35:08;;;;;;;3.01;2.77;;;;;;;11.99;62.22;102032.72;469494;112;922511;-76
2021/09/29 01:36:12;;;;;;;3.16;2.73;;;;;;;12.00;62.25;102030.84;469106;112;922554;-76
2021/09/29 01:37:16;;;;;;;3.48;2.62;;;;;;;12.00;62.29;102031.69;468551;112;922902;-77
2021/09/29 01:38:19;;;;;;;5.81;5.34;;;;;;;12.03;62.29;102035.91;469755;112;922576;-77
2021/09/29 01:39:25;;;;;;;7.78;4.56;;;;;;;12.04;62.28;102024.80;468815;111;922793;-76
2021/09/29 01:40:29;;;;;;;5.72;5.32;;;;;;;12.07;62.26;102031.79;468609;112;930434;-77
2021/09/29 01:41:32;;;;;;;3.37;3.16;;;;;;;12.08;62.25;102026.11;468715;112;922650;-77
2021/09/29 01:42:36;;;;;;;3.25;3.02;;;;;;;12.11;62.24;102031.21;468936;112;930499;-77
2021/09/29 01:43:40;;;;;;;2.97;2.71;;;;;;;12.13;62.16;102030.19;469350;112;922478;-76
2021/09/29 01:44:43;;;;;;;3.36;2.51;;;;;;;12.13;62.11;102028.27;468600;112;930351;-76
2021/09/29 01:45:47;;;;;;;2.50;2.34;;;;;;;12.13;62.02;102034.59;469287;112;924096;-76
2021/09/29 01:46:52;;;;;;;2.88;2.68;;;;;;;12.15;61.95;102034.41;468196;112;922639;-77
2021/09/29 01:47:55;;;;;;;2.84;2.51;;;;;;;12.16;61.96;102037.98;468975;112;922463;-76
2021/09/29 01:49:22;;;;;;;2.82;2.53;;;;;;;12.17;62.00;102035.08;468573;112;930376;-75
2021/09/29 01:50:29;;;;;;;2.73;2.27;;;;;;;12.19;61.94;102038.45;469426;111;922806;-76
2021/09/29 01:51:39;;;;;;;2.89;2.62;;;;;;;12.20;61.81;102036.56;467889;111;922678;-76
2021/09/29 01:52:44;;;;;;;2.52;2.34;;;;;;;12.20;61.83;102039.30;468630;112;922493;-76
2021/09/29 01:53:50;;;;;;;2.57;2.37;;;;;;;12.20;61.88;102029.21;469274;112;922591;-76
2021/09/29 01:54:55;;;;;;;2.75;2.42;;;;;;;12.20;61.86;102037.42;469061;111;923091;-76
2021/09/29 01:56:00;;;;;;;2.71;2.48;;;;;;;12.22;61.82;102032.62;468665;112;923215;-76
2021/09/29 01:57:04;;;;;;;2.98;2.38;;;;;;;12.23;61.76;102041.67;467936;112;922475;-77
2021/09/29 01:58:07;;;;;;;2.68;2.47;;;;;;;12.22;61.74;102043.55;469391;111;922753;-77
2021/09/29 01:59:11;;;;;;;2.52;2.28;;;;;;;12.24;61.72;102040.64;468847;112;930398;-77
2021/09/29 02:00:17;;;;;;;3.15;2.81;;;;;;;12.23;61.73;102039.79;468803;112;922565;-76
2021/09/29 02:01:20;;;;;;;3.37;2.71;;;;;;;12.25;61.70;102042.31;469358;112;922883;-77
2021/09/29 02:02:24;;;;;;;2.54;2.34;;;;;;;12.25;61.71;102040.42;469560;112;922547;-78
2021/09/29 02:03:27;;;;;;;2.52;2.32;;;;;;;12.26;61.55;102046.75;468685;112;930305;-76
2021/09/29 02:04:31;;;;;;;2.86;2.50;;;;;;;12.26;61.55;102041.27;469217;112;930251;-77
2021/09/29 02:05:36;;;;;;;3.47;2.62;;;;;;;12.26;61.58;102053.06;468941;112;930401;-77
2021/09/29 02:06:52;;;;;;;4.39;3.99;;;;;;;12.26;61.55;102049.48;469592;112;923110;-77
2021/09/29 02:07:57;;;;;;;3.09;2.53;;;;;;;12.28;61.56;102047.41;468130;112;923293;-76
2021/09/29 02:09:00;;;;;;;2.91;2.52;;;;;;;12.28;61.56;102050.16;469162;112;922927;-77
2021/09/29 02:10:07;;;;;;;3.37;2.99;;;;;;;12.28;61.54;102045.53;467783;112;922534;-77
2021/09/29 02:11:10;;;;;;;3.02;2.77;;;;;;;12.30;61.54;102056.26;468398;112;927382;-76
2021/09/29 02:12:14;;;;;;;4.84;4.45;;;;;;;12.31;61.52;102049.76;469488;112;923103;-77
2021/09/29 02:13:17;;;;;;;5.90;4.32;;;;;;;12.32;61.46;102051.45;468268;112;922490;-76
2021/09/29 02:14:22;;;;;;;3.02;2.76;;;;;;;12.32;61.45;102057.78;469175;112;922754;-77
2021/09/29 02:15:26;;;;;;;2.41;2.17;;;;;;;12.33;61.39;102050.42;468572;112;923059;-76
2021/09/29 02:16:30;;;;;;;2.64;2.44;;;;;;;12.33;61.30;102053.16;469323;112;922446;-76
2021/09/29 02:17:34;;;;;;;3.19;2.90;;;;;;;12.32;61.18;102051.45;468266;112;922865;-76
2021/09/29 02:18:37;;;;;;;3.91;3.44;;;;;;;12.29;61.14;102049.97;468508;112;922412;-76
2021/09/29 02:19:40;;;;;;;2.99;2.42;;;;;;;12.26;61.16;102050.33;468967;112;922866;-76
2021/09/29 02:20:45;;;;;;;2.63;2.43;;;;;;;12.22;61.26;102051.76;469776;112;922551;-76
2021/09/29 02:21:48;;;;;;;2.81;2.43;;;;;;;12.20;61.35;102053.82;469650;112;922575;-77
2021/09/29 02:22:52;;;;;;;2.71;2.34;;;;;;;12.20;61.37;102052.97;470140;112;922491;-77
2021/09/29 02:23:55;;;;;;;2.73;2.45;;;;;;;12.21;61.37;102050.05;469546;112;930246;-75
2021/09/29 02:24:58;;;;;;;3.06;2.53;;;;;;;12.22;61.39;102048.17;469629;112;922621;-78
2021/09/29 02:26:02;;;;;;;6.29;2.54;;;;;;;12.23;61.36;102049.88;469334;112;922899;-76
2021/09/29 02:27:06;;;;;;;2.59;2.27;;;;;;;12.24;61.39;102054.31;469218;112;922363;-77
2021/09/29 02:28:09;;;;;;;2.39;2.19;;;;;;;12.23;61.38;102053.46;470006;112;927778;-76
2021/09/29 02:29:14;;;;;;;3.03;2.50;;;;;;;12.23;61.38;102050.73;470113;112;930206;-76
2021/09/29 02:30:17;;;;;;;2.77;2.57;;;;;;;12.24;61.35;102048.84;469988;112;922814;-77
2021/09/29 02:31:21;;;;;;;3.57;2.51;;;;;;;12.22;61.34;102043.55;468530;112;922401;-77
2021/09/29 02:32:24;;;;;;;2.61;2.44;;;;;;;12.20;61.31;102051.09;468148;112;930259;-78
2021/09/29 02:33:27;;;;;;;2.77;2.57;;;;;;;12.19;61.43;102043.91;468435;112;922627;-77
2021/09/29 02:34:31;;;;;;;2.21;2.04;;;;;;;12.18;61.38;102044.98;467582;112;922822;-76
2021/09/29 02:35:35;;;;;;;2.86;2.50;;;;;;;12.17;61.40;102043.28;468624;112;930340;-78
2021/09/29 02:36:40;;;;;;;8.93;2.59;;;;;;;12.18;61.43;102049.60;468778;112;929940;-75
2021/09/29 02:37:43;;;;;;;2.28;2.15;;;;;;;12.18;61.46;102046.86;469214;112;930558;-76
2021/09/29 02:38:49;;;;;;;4.52;2.50;;;;;;;12.18;61.53;102049.60;470058;112;922704;-77
2021/09/29 02:39:52;;;;;;;2.55;2.35;;;;;;;12.18;61.45;102049.60;470028;112;923489;-76
2021/09/29 02:40:56;;;;;;;2.45;2.27;;;;;;;12.18;61.45;102057.80;470336;112;922559;-76
2021/09/29 02:41:59;;;;;;;3.09;2.76;;;;;;;12.18;61.46;102053.19;468591;112;922273;-76
2021/09/29 02:43:02;;;;;;;2.49;2.29;;;;;;;12.18;61.44;102053.19;469414;112;923024;-76
2021/09/29 02:44:08;;;;;;;4.33;3.92;;;;;;;12.18;61.46;102050.45;469972;112;922879;-76
2021/09/29 02:45:11;;;;;;;2.77;2.51;;;;;;;12.19;61.42;102054.85;468129;112;930991;-76
2021/09/29 02:46:17;;;;;;;3.37;3.03;;;;;;;12.19;61.32;102048.53;468005;112;922922;-76
2021/09/29 02:47:20;;;;;;;3.27;2.99;;;;;;;12.19;61.32;102059.47;470148;112;922832;-78
2021/09/29 02:48:23;;;;;;;3.84;2.47;;;;;;;12.18;61.37;102053.19;470124;112;930615;-75
2021/09/29 02:49:27;;;;;;;3.24;2.84;;;;;;;12.18;61.39;102060.54;469457;112;922513;-76
2021/09/29 02:50:31;;;;;;;2.52;2.25;;;;;;;12.18;61.41;102061.39;468719;112;923127;-77
2021/09/29 02:51:35;;;;;;;3.12;2.68;;;;;;;12.18;61.38;102061.39;468547;112;923131;-76
2021/09/29 02:52:39;;;;;;;3.04;2.67;;;;;;;12.18;61.42;102057.80;469746;112;922548;-75
2021/09/29 02:53:42;;;;;;;2.52;2.30;;;;;;;12.17;61.44;102056.95;469421;112;922909;-75
2021/09/29 02:54:45;;;;;;;2.58;2.36;;;;;;;12.18;61.49;102060.54;469152;112;922517;-75
2021/09/29 02:55:49;;;;;;;3.04;2.39;;;;;;;12.18;61.51;102064.13;468653;112;922465;-74
2021/09/29 02:56:53;;;;;;;2.82;2.01;;;;;;;12.20;61.52;102063.91;469183;112;923292;-76
2021/09/29 02:57:56;;;;;;;2.89;2.15;;;;;;;12.20;61.45;102061.17;470135;112;922469;-76
2021/09/29 02:58:59;;;;;;;3.12;2.61;;;;;;;12.21;61.42;102071.94;469458;111;922655;-77
2021/09/29 03:00:04;;;;;;;3.46;3.16;;;;;;;12.21;61.42;102058.26;468556;111;922405;-77
2021/09/29 03:01:07;;;;;;;3.46;3.03;;;;;;;12.23;61.41;102069.02;468158;112;930556;-76
2021/09/29 03:02:11;;;;;;;3.42;3.17;;;;;;;12.23;61.44;102061.67;468921;111;922806;-77
2021/09/29 03:03:14;;;;;;;3.40;3.05;;;;;;;12.24;61.46;102059.78;468897;112;930431;-77
2021/09/29 03:04:17;;;;;;;3.58;3.31;;;;;;;12.24;61.47;102068.80;469620;112;922521;-76
2021/09/29 03:05:21;;;;;;;2.79;2.52;;;;;;;12.24;61.45;102060.60;461063;114;922562;-76
2021/09/29 03:06:25;;;;;;;3.39;3.09;;;;;;;12.25;61.30;102069.66;461937;112;922893;-76
2021/09/29 03:07:28;;;;;;;4.16;3.79;;;;;;;12.25;61.30;102072.39;461636;114;923141;-76
2021/09/29 03:08:32;;;;;;;4.99;4.09;;;;;;;12.24;61.34;102074.27;462718;112;923243;-77
2021/09/29 03:09:35;;;;;;;6.47;5.96;;;;;;;12.24;61.41;102067.98;469696;112;922687;-77
2021/09/29 03:10:43;;;;;;;3.89;3.59;;;;;;;12.25;61.44;102072.39;468737;112;930618;-77
2021/09/29 03:11:47;;;;;;;3.24;2.79;;;;;;;12.25;61.43;102069.66;468690;112;922461;-75
2021/09/29 03:12:50;;;;;;;2.71;2.47;;;;;;;12.26;61.40;102077.68;469966;112;923003;-77
2021/09/29 03:13:54;;;;;;;6.16;2.26;;;;;;;12.27;61.37;102081.27;468648;112;928179;-77
2021/09/29 03:14:57;;;;;;;2.49;2.29;;;;;;;12.27;61.28;102076.65;469190;112;923037;-77
2021/09/29 03:16:00;;;;;;;2.52;2.26;;;;;;;12.26;61.15;102085.03;468660;112;930628;-76
2021/09/29 03:17:04;;;;;;;3.61;2.94;;;;;;;12.25;61.16;102080.59;469398;111;922830;-77
2021/09/29 03:18:08;;;;;;;2.36;2.19;;;;;;;12.23;61.19;102077.22;470626;110;923073;-77
2021/09/29 03:19:12;;;;;;;2.63;2.43;;;;;;;12.23;61.25;102085.42;469524;112;930258;-75
2021/09/29 03:20:17;;;;;;;2.86;2.66;;;;;;;12.21;61.22;102082.88;468889;112;923409;-76
2021/09/29 03:21:21;;;;;;;2.71;2.39;;;;;;;12.20;61.27;102083.91;468494;112;922514;-77
2021/09/29 03:22:24;;;;;;;2.43;2.25;;;;;;;12.20;61.29;102083.05;467670;112;930436;-76
2021/09/29 03:23:28;;;;;;;3.81;2.41;;;;;;;12.18;61.34;102086.00;468366;112;930343;-75
2021/09/29 03:24:31;;;;;;;3.20;2.44;;;;;;;12.19;61.41;102081.34;468888;112;930489;-76
2021/09/29 03:25:35;;;;;;;2.80;2.60;;;;;;;12.18;61.43;102080.53;469350;112;930492;-75
2021/09/29 03:26:39;;;;;;;4.61;3.36;;;;;;;12.19;61.47;102089.55;468714;112;922241;-78
2021/09/29 03:27:43;;;;;;;3.09;2.77;;;;;;;12.17;61.37;102083.45;468124;112;922984;-75
2021/09/29 03:28:46;;;;;;;2.89;2.66;;;;;;;12.15;61.38;102088.24;469732;112;930294;-76
2021/09/29 03:29:50;;;;;;;3.83;3.52;;;;;;;12.13;61.45;102090.34;468882;112;930428;-76
2021/09/29 03:30:54;;;;;;;4.06;3.74;;;;;;;12.11;61.60;102088.63;468717;112;922449;-78
2021/09/29 03:31:57;;;;;;;4.58;3.68;;;;;;;12.11;61.68;102090.52;469111;112;923561;-77
2021/09/29 03:33:01;;;;;;;3.03;2.87;;;;;;;12.11;61.70;102091.37;469376;112;922738;-76
2021/09/29 03:34:04;;;;;;;3.12;2.81;;;;;;;12.10;61.62;102092.39;468613;112;922620;-77
2021/09/29 03:35:09;;;;;;;2.81;2.61;;;;;;;12.09;61.53;102087.96;468993;112;930381;-76
2021/09/29 03:36:14;;;;;;;6.56;2.25;;;;;;;12.08;61.58;102088.14;469106;112;922567;-75
2021/09/29 03:37:18;;;;;;;2.52;2.24;;;;;;;12.07;61.69;102098.22;469185;112;922490;-76
2021/09/29 03:38:21;;;;;;;2.59;2.40;;;;;;;12.07;61.73;102087.28;469857;112;922792;-76
2021/09/29 03:39:25;;;;;;;2.47;2.27;;;;;;;12.08;61.78;102094.45;469174;112;930350;-77
2021/09/29 03:40:29;;;;;;;2.59;2.40;;;;;;;12.09;61.78;102096.16;468808;112;922471;-77
2021/09/29 03:41:33;;;;;;;2.96;2.61;;;;;;;12.10;61.83;102097.02;468945;112;922403;-78
2021/09/29 03:42:37;;;;;;;5.23;2.56;;;;;;;12.11;61.83;102093.25;469499;112;930374;-77
2021/09/29 03:43:40;;;;;;;2.98;2.72;;;;;;;12.11;61.86;102096.83;468441;112;922486;-77
2021/09/29 03:44:48;;;;;;;3.09;2.88;;;;;;;12.13;61.84;102093.06;468567;112;922752;-77
2021/09/29 03:45:49;;;;;;;2.89;2.66;;;;;;;12.13;61.79;102102.09;468298;112;922587;-77
2021/09/29 03:46:53;;;;;;;2.79;2.58;;;;;;;12.11;61.73;102095.98;468936;112;922742;-76
2021/09/29 03:47:56;;;;;;;3.72;2.39;;;;;;;12.07;61.76;102098.22;468884;112;922793;-77
2021/09/29 03:49:02;;;;;;;3.07;2.41;;;;;;;12.05;61.88;102091.27;468152;112;922778;-76
2021/09/29 03:50:06;;;;;;;6.16;5.64;;;;;;;12.04;61.95;102095.03;468271;112;930555;-76
2021/09/29 03:51:10;;;;;;;4.02;3.49;;;;;;;12.05;62.08;102094.84;468527;112;922958;-75
2021/09/29 03:52:13;;;;;;;3.04;2.84;;;;;;;12.06;62.05;102101.17;469475;112;922532;-76
2021/09/29 03:53:16;;;;;;;4.04;3.59;;;;;;;12.06;62.02;102098.44;468113;112;930734;-79
2021/09/29 03:54:20;;;;;;;2.79;2.41;;;;;;;12.06;62.13;102099.28;468979;112;922811;-76
2021/09/29 03:55:23;;;;;;;3.39;2.35;;;;;;;12.07;62.14;102103.69;469267;112;922914;-75
2021/09/29 03:56:28;;;;;;;3.67;2.59;;;;;;;12.07;62.15;102100.14;469137;112;922669;-76
2021/09/29 03:57:34;;;;;;;3.58;2.70;;;;;;;12.07;62.09;102097.41;468217;112;922576;-77
2021/09/29 03:58:37;;;;;;;4.52;2.63;;;;;;;12.06;62.13;102098.44;470400;111;922518;-76
2021/09/29 03:59:41;;;;;;;2.76;2.56;;;;;;;12.07;62.21;102105.61;474219;111;922943;-77
2021/09/29 04:00:45;;;;;;;4.06;2.42;;;;;;;12.07;62.26;102106.42;474236;111;922811;-75
2021/09/29 04:01:49;;;;;;;2.95;2.66;;;;;;;12.09;62.29;102104.36;474463;111;922481;-77
2021/09/29 04:02:53;;;;;;;3.59;3.15;;;;;;;12.11;62.26;102106.92;475169;111;928707;-75
2021/09/29 04:03:57;;;;;;;2.90;2.70;;;;;;;12.11;62.20;102110.50;474173;111;922512;-76
2021/09/29 04:05:01;;;;;;;3.45;3.15;;;;;;;12.13;62.10;102107.56;474848;111;922665;-77
2021/09/29 04:06:04;;;;;;;3.14;2.41;;;;;;;12.12;61.94;102105.89;474882;110;931046;-77
2021/09/29 04:07:08;;;;;;;2.70;2.48;;;;;;;12.10;61.96;102108.80;474607;111;922463;-76
2021/09/29 04:08:12;;;;;;;4.09;3.41;;;;;;;12.08;62.00;102110.86;474624;111;930529;-77
2021/09/29 04:09:15;;;;;;;4.61;3.94;;;;;;;12.09;62.09;102114.45;474936;111;926496;-77
2021/09/29 04:10:20;;;;;;;4.46;3.98;;;;;;;12.09;62.11;102109.83;474862;110;930627;-78
2021/09/29 04:11:23;;;;;;;3.08;2.86;;;;;;;12.10;62.09;102103.33;473809;111;922793;-76
2021/09/29 04:12:27;;;;;;;3.29;2.87;;;;;;;12.10;62.05;102114.27;474788;111;922824;-77
2021/09/29 04:13:31;;;;;;;3.18;2.84;;;;;;;12.09;62.04;102114.45;474690;111;930632;-76
2021/09/29 04:14:35;;;;;;;3.86;3.56;;;;;;;12.08;61.95;102110.86;474448;110;923120;-76
2021/09/29 04:15:38;;;;;;;4.03;2.98;;;;;;;12.05;61.99;102113.98;474564;110;930612;-78
2021/09/29 04:16:42;;;;;;;3.12;2.91;;;;;;;12.02;62.03;102111.61;473909;110;922493;-78
2021/09/29 04:17:45;;;;;;;3.70;3.39;;;;;;;12.01;62.12;102115.41;474847;111;930548;-77
2021/09/29 04:18:48;;;;;;;4.12;3.14;;;;;;;12.01;62.22;102104.47;474650;111;922879;-76
2021/09/29 04:19:52;;;;;;;3.79;2.89;;;;;;;12.01;62.20;102112.67;474613;110;930407;-78
2021/09/29 04:20:56;;;;;;;3.27;2.88;;;;;;;12.02;62.24;102113.49;474965;111;923157;-76
2021/09/29 04:22:00;;;;;;;2.71;2.43;;;;;;;12.02;62.25;102114.34;473862;111;923113;-77
2021/09/29 04:23:05;;;;;;;3.16;2.90;;;;;;;12.03;62.22;102121.52;475295;111;930424;-79
2021/09/29 04:24:10;;;;;;;3.68;2.87;;;;;;;12.04;62.22;102116.90;474591;111;922562;-78
2021/09/29 04:25:13;;;;;;;3.03;2.79;;;;;;;12.04;62.22;102120.48;474735;110;922501;-77
2021/09/29 04:26:19;;;;;;;2.92;2.55;;;;;;;12.05;62.28;102115.87;474342;110;930560;-77
2021/09/29 04:27:22;;;;;;;3.17;2.66;;;;;;;12.07;62.27;102113.80;474313;110;922623;-77
2021/09/29 04:28:26;;;;;;;2.98;2.77;;;;;;;12.08;62.28;102113.59;474465;110;930952;-78
2021/09/29 04:29:29;;;;;;;3.19;2.81;;;;;;;12.10;62.26;102111.53;474784;110;930453;-77
2021/09/29 04:30:34;;;;;;;8.46;3.35;;;;;;;12.13;62.23;102109.48;474891;111;930523;-81
2021/09/29 04:31:38;;;;;;;3.21;2.89;;;;;;;12.14;62.22;102112.00;474151;111;930970;-78
2021/09/29 04:32:42;;;;;;;3.90;3.62;;;;;;;12.16;62.21;102111.81;474537;110;922548;-76
2021/09/29 04:33:46;;;;;;;3.85;3.47;;;;;;;12.18;62.11;102110.61;474769;111;923005;-78
2021/09/29 04:34:49;;;;;;;4.97;2.92;;;;;;;12.19;62.12;102117.75;475015;111;922590;-81
2021/09/29 04:35:53;;;;;;;3.21;2.89;;;;;;;12.21;62.13;102115.69;474565;111;930381;-78
2021/09/29 04:36:57;;;;;;;4.05;3.08;;;;;;;12.22;62.08;102114.66;474715;111;930520;-75
2021/09/29 04:38:01;;;;;;;3.60;2.87;;;;;;;12.21;61.94;102112.95;474572;110;922969;-79
2021/09/29 04:39:04;;;;;;;4.33;2.99;;;;;;;12.20;61.91;102113.98;474727;110;930597;-77
2021/09/29 04:40:09;;;;;;;3.56;2.47;;;;;;;12.21;61.83;102110.22;474110;111;930455;-78
2021/09/29 04:41:13;;;;;;;2.61;2.44;;;;;;;12.21;61.79;102117.57;475077;111;923299;-76
2021/09/29 04:42:16;;;;;;;2.68;2.47;;;;;;;12.22;61.83;102116.54;475129;111;923171;-78
2021/09/29 04:43:20;;;;;;;2.76;2.46;;;;;;;12.22;61.80;102122.86;472834;110;930421;-80
2021/09/29 04:44:24;;;;;;;3.94;3.59;;;;;;;12.22;61.78;102124.74;474454;111;930488;-78
2021/09/29 04:45:29;;;;;;;4.99;4.31;;;;;;;12.22;61.79;102125.59;475014;111;923032;-77
2021/09/29 04:46:33;;;;;;;5.55;4.69;;;;;;;12.23;61.72;102134.65;474129;110;923021;-78
2021/09/29 04:47:36;;;;;;;4.63;3.85;;;;;;;12.24;61.69;102125.41;475184;110;922633;-77
2021/09/29 04:48:40;;;;;;;3.06;2.80;;;;;;;12.23;61.66;102137.39;474045;111;922707;-79
2021/09/29 04:49:44;;;;;;;2.76;2.54;;;;;;;12.22;61.66;102128.33;474193;111;930221;-79
2021/09/29 04:50:47;;;;;;;3.75;2.32;;;;;;;12.21;61.68;102129.36;473192;110;923404;-78
2021/09/29 04:51:51;;;;;;;3.17;2.69;;;;;;;12.20;61.66;102129.54;473752;110;922864;-78
2021/09/29 04:52:54;;;;;;;3.58;2.58;;;;;;;12.19;61.68;102134.16;474251;110;922954;-78
2021/09/29 04:53:58;;;;;;;2.59;2.29;;;;;;;12.20;61.72;102135.01;474944;109;930531;-77
2021/09/29 04:55:01;;;;;;;3.28;2.56;;;;;;;12.19;61.65;102139.63;475393;110;930342;-77
2021/09/29 04:56:05;;;;;;;3.26;2.69;;;;;;;12.17;61.63;102138.98;475613;109;922790;-78
2021/09/29 04:57:09;;;;;;;3.75;3.03;;;;;;;12.18;61.70;102148.04;474599;110;922979;-79
2021/09/29 04:58:13;;;;;;;4.26;2.34;;;;;;;12.18;61.75;102145.30;474932;110;922570;-77